Parkside, New York
Current Conditions -  °F | °C
As of 6:51 AM on Friday 28 Nov 2014 (Local Time) from KLGA Reporting Station
Scattered Clouds Scattered Clouds  
Wind Chill: 21°   Ceiling: Unl
Heat Index: 32°   Visibility: 10mi
Dew Point: 24°   Wind: 17mph
Humidity: 73%   Direction: 310°NW
Pressure: 30.13"   Gusts: 25mph
Location:  40.7228°N, 73.845°W
Report Text: KLGA 281151Z 31015G22KT 10SM FEW070 SCT150 00/M04 A3013 RMK AO2 SLP202 70001 T00001044 10011 20000 53017
Loading
Personal Weather Stations






























Interactive Weather Map New forecast layout! Learn more

10-Day Weather Forecast

Advertisements
Track Severe Weather on mobile